Time;durP1;ratioP1;P1;durP2;ratioP2;P2;SDS_P1;SDS_P2;PMS_P1;PMS_P2;Temp;Humidity;BMP_temperature;BMP_pressure;BME280_temperature;BME280_humidity;BME280_pressure;Samples;Min_cycle;Max_cycle;Signal;HPM_P1;HPM_P2
2023/06/06 00:00:33;;;;;;;;;0.00;0.00;;;;;-146.67;30.26;74286.28;5003483;28;61718;-80
2023/06/06 00:02:59;;;;;;;;;0.00;0.00;;;;;-146.67;30.18;74296.28;5002593;28;61946;-79
2023/06/06 00:05:27;;;;;;;;;0.00;0.00;;;;;-146.67;30.30;74330.22;4985661;28;61928;-79
2023/06/06 00:07:52;;;;;;;;;0.00;0.00;;;;;-146.67;30.49;74326.22;5004056;28;61938;-79
2023/06/06 00:10:18;;;;;;;;;0.00;0.00;;;;;-146.67;30.30;74326.22;5003013;28;61851;-79
2023/06/06 00:12:46;;;;;;;;;0.00;0.00;;;;;-146.67;30.48;74328.22;5004087;28;61936;-80
2023/06/06 00:15:15;;;;;;;;;0.00;0.00;;;;;-146.67;30.46;74328.22;5003929;28;62030;-80
2023/06/06 00:17:42;;;;;;;;;0.00;0.00;;;;;-146.67;30.17;74332.22;5000732;28;61935;-80
2023/06/06 00:20:09;;;;;;;;;0.00;0.00;;;;;-146.67;30.30;74330.22;5001995;28;64725;-79
2023/06/06 00:22:36;;;;;;;;;0.00;0.00;;;;;-146.67;30.55;74334.22;5003376;28;62025;-80
2023/06/06 00:25:03;;;;;;;;;0.00;0.00;;;;;-146.67;30.28;74332.22;4986037;28;62262;-80
2023/06/06 00:27:29;;;;;;;;;0.00;0.00;;;;;-146.67;30.40;74334.22;5003869;28;61781;-80
2023/06/06 00:29:54;;;;;;;;;0.00;0.00;;;;;-146.67;30.63;74348.19;4985449;28;64625;-80
2023/06/06 00:32:20;;;;;;;;;0.00;0.00;;;;;-146.67;30.61;74360.16;4994307;28;62012;-80
2023/06/06 00:34:45;;;;;;;;;0.00;0.00;;;;;-146.67;30.72;74362.16;4992146;28;61846;-80
2023/06/06 00:37:10;;;;;;;;;0.00;0.00;;;;;-146.67;30.51;74360.16;5003534;28;61823;-80
2023/06/06 00:39:36;;;;;;;;;0.00;0.00;;;;;-146.67;30.64;74354.16;5002465;28;62022;-80
2023/06/06 00:42:01;;;;;;;;;0.00;0.00;;;;;-146.67;30.71;74360.16;5003525;28;61769;-80
2023/06/06 00:44:27;;;;;;;;;0.00;0.00;;;;;-146.67;30.79;74364.16;5003396;28;62195;-80
2023/06/06 00:46:52;;;;;;;;;0.00;0.00;;;;;-146.67;30.48;74366.16;5001785;28;62017;-80
2023/06/06 00:49:19;;;;;;;;;0.00;0.00;;;;;-146.67;30.57;74364.16;5002677;28;63236;-79
2023/06/06 00:51:45;;;;;;;;;0.00;0.00;;;;;-146.67;30.80;74368.16;4991117;28;62625;-79
2023/06/06 00:54:13;;;;;;;;;0.00;0.00;;;;;-146.67;30.67;74366.16;5003564;28;62207;-80
2023/06/06 00:56:43;;;;;;;;;0.00;0.00;;;;;-146.67;30.80;74364.16;5001915;28;61916;-80
2023/06/06 00:59:10;;;;;;;;;0.00;0.00;;;;;-146.67;30.80;74364.16;5001268;28;63837;-80
2023/06/06 01:01:38;;;;;;;;;0.00;0.00;;;;;-146.67;30.77;74366.16;5003210;28;62038;-79
2023/06/06 01:04:10;;;;;;;;;0.00;0.00;;;;;-146.67;30.81;74370.16;4985438;28;61877;-79
2023/06/06 01:06:37;;;;;;;;;0.00;0.00;;;;;-146.67;31.42;74418.06;5002966;28;61820;-80
2023/06/06 01:09:04;;;;;;;;;0.00;0.00;;;;;-146.67;31.42;74436.03;4982342;28;63778;-80
2023/06/06 01:11:57;;;;;;;;;0.00;0.00;;;;;-146.67;31.39;74448.00;5001514;28;61927;-79
2023/06/06 01:14:39;;;;;;;;;0.00;0.00;;;;;-146.67;31.50;74440.00;4980737;28;62088;-80
2023/06/06 01:17:07;;;;;;;;;0.00;0.00;;;;;-146.67;31.53;74422.03;5000266;28;61943;-79
2023/06/06 01:19:34;;;;;;;;;0.00;0.00;;;;;-146.67;31.42;74436.03;5001173;28;64262;-80
2023/06/06 01:21:59;;;;;;;;;0.00;0.00;;;;;-146.67;31.67;74432.03;5002473;28;62117;-80
2023/06/06 01:24:27;;;;;;;;;0.00;0.00;;;;;-146.67;31.39;74428.03;5003196;28;61972;-80
2023/06/06 01:26:52;;;;;;;;;0.00;0.00;;;;;-146.67;31.71;74450.00;4983619;28;61755;-79
2023/06/06 01:29:18;;;;;;;;;0.00;0.00;;;;;-146.67;32.04;74475.94;4984593;28;63851;-80
2023/06/06 01:32:05;;;;;;;;;0.00;0.00;;;;;-146.67;32.00;74495.91;5002635;28;61892;-80
2023/06/06 01:34:38;;;;;;;;;0.00;0.00;;;;;-146.67;31.34;74481.94;4984495;28;61805;-80
2023/06/06 01:37:26;;;;;;;;;0.00;0.00;;;;;-146.67;32.30;74497.91;5000320;28;62173;-80
2023/06/06 01:39:55;;;;;;;;;0.00;0.00;;;;;-146.67;32.14;74521.88;5000079;28;61964;-80
2023/06/06 01:42:22;;;;;;;;;0.00;0.00;;;;;-146.67;32.18;74523.88;4984828;28;62114;-81
2023/06/06 01:44:52;;;;;;;;;0.00;0.00;;;;;-146.67;32.04;74507.91;4984562;28;61945;-80
2023/06/06 01:47:18;;;;;;;;;0.00;0.00;;;;;-146.67;31.96;74489.94;5001133;28;62179;-80
2023/06/06 01:49:44;;;;;;;;;0.00;0.00;;;;;-146.67;31.95;74491.94;4983849;28;63703;-80
2023/06/06 01:52:10;;;;;;;;;0.00;0.00;;;;;-146.67;31.76;74489.94;5002079;28;61857;-80
2023/06/06 01:54:36;;;;;;;;;0.00;0.00;;;;;-146.67;32.15;74485.94;5002664;28;62034;-80
2023/06/06 01:57:02;;;;;;;;;3.00;3.00;;;;;-146.67;31.79;74491.94;4999458;28;61757;-80
2023/06/06 01:59:28;;;;;;;;;0.00;0.00;;;;;-146.67;31.81;74491.94;5001679;28;62904;-79
2023/06/06 02:01:53;;;;;;;;;0.00;0.00;;;;;-146.67;32.00;74485.94;5002619;28;61888;-80
2023/06/06 02:04:18;;;;;;;;;0.00;0.00;;;;;-146.67;31.82;74479.94;5001993;28;61871;-80
2023/06/06 02:06:45;;;;;;;;;0.00;0.00;;;;;-146.67;31.61;74471.97;5002685;28;62360;-80
2023/06/06 02:09:10;;;;;;;;;0.00;0.00;;;;;-146.67;31.84;74467.97;5000182;28;63599;-80
2023/06/06 02:11:36;;;;;;;;;0.00;0.00;;;;;-146.67;31.63;74471.97;5001839;28;61932;-80
2023/06/06 02:14:02;;;;;;;;;0.00;0.00;;;;;-146.67;31.79;74481.94;4999589;28;61776;-80
2023/06/06 02:16:29;;;;;;;;;0.00;0.00;;;;;-146.67;32.87;74523.88;5002465;28;61876;-80
2023/06/06 02:18:55;;;;;;;;;0.00;0.00;;;;;-146.67;32.75;74535.84;5000682;28;61866;-80
2023/06/06 02:21:20;;;;;;;;;0.00;0.00;;;;;-146.67;32.30;74531.84;5001638;28;62057;-81
2023/06/06 02:23:46;;;;;;;;;0.00;0.00;;;;;-146.67;32.18;74521.88;5002144;28;61801;-80
2023/06/06 02:26:12;;;;;;;;;0.00;0.00;;;;;-146.67;32.29;74523.88;5001738;28;62113;-81
2023/06/06 02:28:37;;;;;;;;;0.00;0.00;;;;;-146.67;32.07;74523.88;5001413;28;61851;-81
2023/06/06 02:31:03;;;;;;;;;0.00;0.00;;;;;-146.67;32.24;74523.88;4984356;28;62036;-81
2023/06/06 02:33:28;;;;;;;;;0.00;0.00;;;;;-146.67;32.08;74537.84;5001742;28;62010;-80
2023/06/06 02:35:54;;;;;;;;;0.00;0.00;;;;;-146.67;32.02;74543.84;5002230;28;62118;-80
2023/06/06 02:38:20;;;;;;;;;0.00;0.00;;;;;-146.67;31.88;74551.81;4999752;28;63759;-81
2023/06/06 02:40:46;;;;;;;;;0.00;0.00;;;;;-146.67;32.10;74541.84;5000099;28;61923;-80
2023/06/06 02:43:11;;;;;;;;;0.00;0.00;;;;;-146.67;31.93;74543.84;5001868;28;61948;-80
2023/06/06 02:45:36;;;;;;;;;0.00;0.00;;;;;-146.67;32.29;74545.81;5002120;28;62790;-80
2023/06/06 02:48:02;;;;;;;;;0.00;0.00;;;;;-146.67;32.33;74543.84;4997989;28;61954;-80
2023/06/06 02:50:28;;;;;;;;;0.00;0.00;;;;;-146.67;32.24;74547.81;4983459;28;61993;-80
2023/06/06 02:52:55;;;;;;;;;0.00;0.00;;;;;-146.67;32.41;74543.84;4984115;28;62115;-80
2023/06/06 02:55:20;;;;;;;;;0.00;0.00;;;;;-146.67;32.29;74541.84;5000495;28;62435;-80
2023/06/06 02:57:46;;;;;;;;;0.00;0.00;;;;;-146.67;32.21;74545.81;5003372;28;63957;-80
2023/06/06 03:00:12;;;;;;;;;0.00;0.00;;;;;-146.67;32.02;74571.78;5004938;28;61931;-80
2023/06/06 03:02:38;;;;;;;;;15.00;8.25;;;;;-146.67;32.67;74589.75;5004325;28;62046;-80
2023/06/06 03:05:04;;;;;;;;;0.00;0.00;;;;;-146.67;32.64;74585.75;5004001;28;61913;-80
2023/06/06 03:07:30;;;;;;;;;6.00;6.00;;;;;-146.67;32.81;74577.78;5004267;28;62832;-80
2023/06/06 03:09:56;;;;;;;;;14.00;9.50;;;;;-146.67;32.82;74571.78;5004371;28;61898;-80
2023/06/06 03:12:21;;;;;;;;;11.25;9.00;;;;;-146.67;32.64;74577.78;5004584;28;62370;-81
2023/06/06 03:14:47;;;;;;;;;0.00;0.00;;;;;-146.67;32.50;74577.78;5003840;28;61979;-80
2023/06/06 03:17:12;;;;;;;;;0.00;0.00;;;;;-146.67;32.47;74577.78;5003602;28;62884;-80
2023/06/06 03:19:37;;;;;;;;;0.00;0.00;;;;;-146.67;32.35;74583.75;5001022;28;62118;-80
2023/06/06 03:22:03;;;;;;;;;0.00;0.00;;;;;-146.67;32.64;74587.75;4983094;28;62179;-80
2023/06/06 03:24:29;;;;;;;;;0.00;0.00;;;;;-146.67;32.78;74587.75;5004086;28;62020;-80
2023/06/06 03:26:55;;;;;;;;;0.00;0.00;;;;;-146.67;32.61;74595.75;5002756;28;62006;-80
2023/06/06 03:29:21;;;;;;;;;0.00;0.00;;;;;-146.67;32.57;74593.75;5003719;28;61799;-80
2023/06/06 03:31:48;;;;;;;;;0.00;0.00;;;;;-146.67;32.71;74603.72;5003158;28;61962;-80
2023/06/06 03:34:14;;;;;;;;;0.00;0.00;;;;;-146.67;32.36;74611.72;4986125;28;61902;-80
2023/06/06 03:36:40;;;;;;;;;0.00;0.00;;;;;-146.67;33.15;74629.69;5003111;28;62587;-80
2023/06/06 03:39:05;;;;;;;;;18.00;13.75;;;;;-146.67;33.02;74631.69;5003150;28;61919;-80
2023/06/06 03:41:31;;;;;;;;;10.50;6.00;;;;;-146.67;33.18;74629.69;5003055;28;62127;-80
2023/06/06 03:43:56;;;;;;;;;14.75;12.25;;;;;-146.67;33.12;74633.69;5001700;28;61811;-80
2023/06/06 03:46:22;;;;;;;;;0.00;0.00;;;;;-146.67;32.98;74633.69;5001072;28;63898;-80
2023/06/06 03:48:48;;;;;;;;;0.00;0.00;;;;;-146.67;32.94;74637.66;4985022;28;61991;-79
2023/06/06 03:51:13;;;;;;;;;0.00;0.00;;;;;-146.67;33.23;74643.66;5003694;28;62273;-80
2023/06/06 03:53:38;;;;;;;;;0.00;0.00;;;;;-146.67;33.12;74639.66;5003369;28;62013;-80
2023/06/06 03:56:04;;;;;;;;;0.00;0.00;;;;;-146.67;33.03;74635.66;5001039;28;63304;-80
2023/06/06 03:58:30;;;;;;;;;0.00;0.00;;;;;-146.67;32.89;74639.66;4985590;28;61939;-80
2023/06/06 04:00:57;;;;;;;;;0.00;0.00;;;;;-146.67;32.65;74637.66;5002783;28;62153;-80
2023/06/06 04:03:23;;;;;;;;;0.00;0.00;;;;;-146.67;33.09;74643.66;5000997;28;61830;-80
2023/06/06 04:05:50;;;;;;;;;17.75;10.50;;;;;-146.67;33.49;74643.66;5001755;28;63234;-80
2023/06/06 04:08:16;;;;;;;;;12.75;10.75;;;;;-146.67;33.25;74655.63;5002714;28;61939;-80
2023/06/06 04:10:42;;;;;;;;;0.25;0.25;;;;;-146.67;33.01;74659.63;5001165;28;62049;-79
2023/06/06 04:13:07;;;;;;;;;14.75;12.50;;;;;-146.67;33.43;74671.59;5002839;28;61860;-79
2023/06/06 04:15:33;;;;;;;;;19.00;14.75;;;;;-146.67;33.52;74675.59;5001712;28;62035;-80
2023/06/06 04:17:58;;;;;;;;;12.25;5.25;;;;;-146.67;33.58;74669.63;4984265;28;62021;-80
2023/06/06 04:20:26;;;;;;;;;0.00;0.00;;;;;-146.67;33.38;74659.63;4938663;28;1327923;-80
2023/06/06 04:22:51;;;;;;;;;0.00;0.00;;;;;-146.67;33.29;74649.66;4984826;28;61870;-80
2023/06/06 04:25:18;;;;;;;;;14.00;11.75;;;;;-146.67;33.27;74651.66;5001435;28;63938;-79
2023/06/06 04:27:44;;;;;;;;;0.00;0.00;;;;;-146.67;33.00;74645.66;5001358;28;61908;-79
2023/06/06 04:30:14;;;;;;;;;10.00;9.00;;;;;-146.67;32.98;74647.66;4985448;28;61793;-79
2023/06/06 04:32:40;;;;;;;;;18.00;13.75;;;;;-146.67;33.33;74653.63;4985929;28;61913;-79
2023/06/06 04:35:07;;;;;;;;;0.00;0.00;;;;;-146.67;33.09;74647.66;4984973;28;63989;-79
2023/06/06 04:37:33;;;;;;;;;0.00;0.00;;;;;-146.67;32.91;74613.72;4986122;28;62528;-80
2023/06/06 04:40:00;;;;;;;;;22.50;18.00;;;;;-146.67;32.98;74617.69;5003114;28;61817;-79
2023/06/06 04:42:32;;;;;;;;;0.00;0.00;;;;;-146.67;32.70;74617.69;5003782;28;62206;-79
2023/06/06 04:44:58;;;;;;;;;0.00;0.00;;;;;-146.67;32.84;74615.72;5002585;28;62863;-79
2023/06/06 04:47:28;;;;;;;;;12.00;6.75;;;;;-146.67;32.95;74617.69;4982627;28;62311;-80
2023/06/06 04:49:54;;;;;;;;;12.25;8.75;;;;;-146.67;32.98;74621.69;4985812;28;62123;-79
2023/06/06 04:52:19;;;;;;;;;0.00;0.00;;;;;-146.67;32.74;74617.69;5003238;28;62229;-80
2023/06/06 04:54:45;;;;;;;;;20.00;16.75;;;;;-146.67;33.04;74605.72;4984690;28;63981;-80
2023/06/06 04:57:19;;;;;;;;;0.00;0.00;;;;;-146.67;33.06;74601.72;5002955;28;62125;-80
2023/06/06 04:59:50;;;;;;;;;22.50;19.00;;;;;-146.67;33.09;74597.75;5002973;28;62034;-80
2023/06/06 05:02:20;;;;;;;;;12.25;10.25;;;;;-146.67;33.23;74603.72;4985484;28;62096;-80
2023/06/06 05:04:52;;;;;;;;;15.50;13.50;;;;;-146.67;33.20;74601.72;4999244;28;63854;-79
2023/06/06 05:07:18;;;;;;;;;20.00;17.75;;;;;-146.67;33.20;74597.75;5002815;28;62166;-80
2023/06/06 05:09:43;;;;;;;;;22.75;17.00;;;;;-146.67;33.18;74589.75;5000436;28;63159;-79
2023/06/06 05:12:09;;;;;;;;;0.00;0.00;;;;;-146.67;32.47;74575.78;5002587;28;61768;-81
2023/06/06 05:14:34;;;;;;;;;24.75;20.25;;;;;-146.67;33.01;74567.78;5000759;28;65071;-81
2023/06/06 05:17:00;;;;;;;;;0.00;0.00;;;;;-146.67;32.69;74551.81;5001382;28;62291;-80
2023/06/06 05:19:25;;;;;;;;;0.00;0.00;;;;;-146.67;32.60;74543.84;5001915;28;61765;-79
2023/06/06 05:21:51;;;;;;;;;0.00;0.00;;;;;-146.67;32.48;74531.84;4998520;28;61848;-80
2023/06/06 05:24:16;;;;;;;;;12.50;12.50;;;;;-146.67;32.65;74535.84;4999242;28;61757;-78
2023/06/06 05:26:42;;;;;;;;;0.00;0.00;;;;;-146.67;32.46;74519.88;5002304;28;61884;-76
2023/06/06 05:29:09;;;;;;;;;28.00;19.25;;;;;-146.67;32.67;74527.84;5000518;28;61939;-77
2023/06/06 05:31:34;;;;;;;;;22.75;18.75;;;;;-146.67;32.47;74523.88;4984299;28;62302;-76
2023/06/06 05:34:01;;;;;;;;;0.00;0.00;;;;;-146.67;31.93;74511.88;5001644;28;61930;-77
2023/06/06 05:36:26;;;;;;;;;0.00;0.00;;;;;-146.67;32.07;74507.91;5001807;28;61761;-77
2023/06/06 05:38:52;;;;;;;;;0.00;0.00;;;;;-146.67;32.27;74505.91;4984605;28;62135;-77
2023/06/06 05:41:20;;;;;;;;;0.00;0.00;;;;;-146.67;32.46;74491.94;5001520;28;62221;-77
2023/06/06 05:43:46;;;;;;;;;15.25;12.00;;;;;-146.67;32.76;74483.94;5001551;28;62092;-76
2023/06/06 05:46:13;;;;;;;;;0.00;0.00;;;;;-146.67;32.21;74461.97;5001419;28;61887;-77
2023/06/06 05:48:38;;;;;;;;;21.50;17.75;;;;;-146.67;32.38;74503.91;5000492;28;61938;-76
2023/06/06 05:51:04;;;;;;;;;0.00;0.00;;;;;-146.67;32.31;74489.94;4984610;28;62225;-76
2023/06/06 05:53:29;;;;;;;;;25.50;20.50;;;;;-146.67;32.34;74505.91;4983417;28;63709;-77
2023/06/06 05:55:55;;;;;;;;;0.00;0.00;;;;;-146.67;32.47;74497.91;5001145;28;62214;-76
2023/06/06 05:58:20;;;;;;;;;0.00;0.00;;;;;-146.67;32.32;74485.94;5000809;28;61972;-77
2023/06/06 06:00:46;;;;;;;;;0.00;0.00;;;;;-146.67;32.19;74479.94;5001234;28;62204;-78
2023/06/06 06:03:12;;;;;;;;;0.00;0.00;;;;;-146.67;32.02;74485.94;5001112;28;62879;-77
2023/06/06 06:05:38;;;;;;;;;0.00;0.00;;;;;-146.67;32.19;74485.94;5001871;28;61855;-78
2023/06/06 06:08:06;;;;;;;;;0.00;0.00;;;;;-146.67;32.21;74483.94;5001514;28;61993;-78
2023/06/06 06:10:37;;;;;;;;;0.00;0.00;;;;;-146.67;32.43;74469.97;5001470;28;61995;-78
2023/06/06 06:13:03;;;;;;;;;0.00;0.00;;;;;-146.67;32.20;74434.03;5001424;28;61938;-78
2023/06/06 06:15:30;;;;;;;;;0.00;0.00;;;;;-146.67;31.51;74398.09;5001358;28;62104;-78
2023/06/06 06:17:56;;;;;;;;;0.00;0.00;;;;;-146.67;31.88;74392.09;4983690;28;61769;-78
2023/06/06 06:20:21;;;;;;;;;0.00;0.00;;;;;-146.67;31.76;74390.09;4989501;28;61719;-79
2023/06/06 06:22:47;;;;;;;;;0.00;0.00;;;;;-146.67;31.36;74366.16;5000887;28;61749;-80
2023/06/06 06:25:13;;;;;;;;;0.00;0.00;;;;;-146.67;31.51;74380.13;5001437;28;62176;-80
2023/06/06 06:27:42;;;;;;;;;0.00;0.00;;;;;-146.67;31.48;74364.16;4984420;28;62130;-79
2023/06/06 06:30:09;;;;;;;;;0.00;0.00;;;;;-146.67;31.08;74328.22;5001945;28;62024;-79
2023/06/06 06:32:36;;;;;;;;;0.00;0.00;;;;;-146.67;30.92;74324.22;5001566;28;62894;-80
2023/06/06 06:35:02;;;;;;;;;0.00;0.00;;;;;-146.67;31.30;74328.22;4998018;28;62449;-79
2023/06/06 06:37:31;;;;;;;;;0.00;0.00;;;;;-146.67;31.32;74326.22;5001303;28;61944;-80
2023/06/06 06:39:58;;;;;;;;;0.00;0.00;;;;;-146.67;31.27;74332.22;4983771;28;61873;-82
2023/06/06 06:42:23;;;;;;;;;0.00;0.00;;;;;-146.67;31.14;74338.19;5000943;28;62145;-79
2023/06/06 06:44:50;;;;;;;;;0.00;0.00;;;;;-146.67;31.31;74334.22;5001968;28;61933;-79
2023/06/06 06:47:15;;;;;;;;;0.00;0.00;;;;;-146.67;31.40;74328.22;4999981;28;61858;-79
2023/06/06 06:49:41;;;;;;;;;0.00;0.00;;;;;-146.67;31.20;74338.19;5000615;28;61940;-81
2023/06/06 06:52:07;;;;;;;;;0.00;0.00;;;;;-146.67;31.13;74332.22;5000826;28;61800;-76
2023/06/06 06:54:35;;;;;;;;;0.00;0.00;;;;;-146.67;31.20;74320.22;5001067;28;61963;-76
2023/06/06 06:57:02;;;;;;;;;0.00;0.00;;;;;-146.67;30.91;74300.28;5000924;28;62029;-75
2023/06/06 06:59:28;;;;;;;;;0.00;0.00;;;;;-146.67;30.78;74282.31;4983867;28;62038;-75
2023/06/06 07:01:54;;;;;;;;;0.00;0.00;;;;;-146.67;31.11;74286.28;5001463;28;62945;-76
2023/06/06 07:04:20;;;;;;;;;0.00;0.00;;;;;-146.67;30.83;74270.31;5001369;28;62016;-76
2023/06/06 07:06:46;;;;;;;;;0.00;0.00;;;;;-146.67;30.97;74240.38;5001921;28;61822;-76
2023/06/06 07:09:13;;;;;;;;;0.00;0.00;;;;;-146.67;30.83;74232.41;5001030;28;62255;-76
2023/06/06 07:11:38;;;;;;;;;0.00;0.00;;;;;-146.67;30.71;74220.41;5000900;28;62014;-80
2023/06/06 07:14:04;;;;;;;;;0.00;0.00;;;;;-146.67;30.57;74202.44;5001936;28;61879;-79
2023/06/06 07:16:30;;;;;;;;;0.00;0.00;;;;;-146.67;30.48;74190.47;5001049;28;61766;-80
2023/06/06 07:18:56;;;;;;;;;0.00;0.00;;;;;-146.67;30.23;74184.47;4982026;28;62215;-80
2023/06/06 07:21:22;;;;;;;;;0.00;0.00;;;;;-146.67;30.43;74178.50;4998960;28;62105;-80
2023/06/06 07:23:48;;;;;;;;;0.00;0.00;;;;;-146.67;30.23;74176.50;5000583;28;62199;-80
2023/06/06 07:26:19;;;;;;;;;0.00;0.00;;;;;-146.67;31.07;74226.41;4996366;28;61815;-80
2023/06/06 07:28:47;;;;;;;;;0.00;0.00;;;;;-146.67;30.74;74232.41;5001194;28;61918;-79
2023/06/06 07:31:14;;;;;;;;;0.00;0.00;;;;;-146.67;30.98;74242.38;4998882;28;63892;-80
2023/06/06 07:33:40;;;;;;;;;0.00;0.00;;;;;-146.67;30.88;74250.38;5000846;28;62290;-79
2023/06/06 07:36:07;;;;;;;;;0.00;0.00;;;;;-146.67;30.91;74258.34;5000772;28;62238;-80
2023/06/06 07:38:32;;;;;;;;;0.00;0.00;;;;;-146.67;31.32;74250.38;4999161;28;62181;-78
2023/06/06 07:40:58;;;;;;;;;0.00;0.00;;;;;-146.67;30.83;74196.47;5000296;28;61959;-76
2023/06/06 07:43:23;;;;;;;;;0.00;0.00;;;;;-146.67;30.62;74214.44;5003914;28;61915;-76
2023/06/06 07:45:48;;;;;;;;;0.00;0.00;;;;;-146.67;30.97;74224.41;5003701;28;61908;-76
2023/06/06 07:48:14;;;;;;;;;0.00;0.00;;;;;-146.67;31.21;74224.41;5003388;28;62140;-75
2023/06/06 07:50:39;;;;;;;;;0.00;0.00;;;;;-146.67;30.55;74226.41;5002743;28;62113;-76
2023/06/06 07:53:05;;;;;;;;;0.00;0.00;;;;;-146.67;31.11;74284.28;5003798;28;61869;-76
2023/06/06 07:55:30;;;;;;;;;1.00;1.00;;;;;-146.67;31.17;74284.28;5003061;28;61858;-76
2023/06/06 07:57:57;;;;;;;;;0.00;0.00;;;;;-146.67;30.95;74278.31;5001999;28;62066;-77
2023/06/06 08:00:23;;;;;;;;;0.00;0.00;;;;;-146.67;31.53;74270.31;4993128;28;64958;-77
2023/06/06 08:02:49;;;;;;;;;0.00;0.00;;;;;-146.67;31.48;74254.34;5003598;28;62515;-78
2023/06/06 08:05:16;;;;;;;;;0.00;0.00;;;;;-146.67;30.96;74236.38;5003576;28;62360;-79
2023/06/06 08:07:42;;;;;;;;;0.00;0.00;;;;;-146.67;30.82;74218.41;5002091;28;62015;-79
2023/06/06 08:10:08;;;;;;;;;0.00;0.00;;;;;-146.67;30.98;74210.44;5003079;28;62901;-75
2023/06/06 08:12:34;;;;;;;;;0.00;0.00;;;;;-146.67;30.96;74224.41;5001734;28;61824;-77
2023/06/06 08:15:00;;;;;;;;;0.00;0.00;;;;;-146.67;30.71;74198.47;5001293;28;62141;-77
2023/06/06 08:17:26;;;;;;;;;0.00;0.00;;;;;-146.67;30.69;74170.50;4985574;28;62123;-77
2023/06/06 08:19:51;;;;;;;;;0.00;0.00;;;;;-146.67;30.49;74188.47;5002791;28;61831;-77
2023/06/06 08:22:17;;;;;;;;;0.00;0.00;;;;;-146.67;30.89;74164.53;5003230;28;61807;-75
2023/06/06 08:24:43;;;;;;;;;0.00;0.00;;;;;-146.67;30.73;74140.56;5003598;28;61954;-76
2023/06/06 08:27:10;;;;;;;;;0.00;0.00;;;;;-146.67;30.82;74158.53;5003856;28;61796;-76
2023/06/06 08:29:36;;;;;;;;;0.00;0.00;;;;;-146.67;30.94;74160.53;5002817;28;63093;-76
2023/06/06 08:32:01;;;;;;;;;0.00;0.00;;;;;-146.67;30.78;74156.53;5002983;28;61957;-76
2023/06/06 08:34:27;;;;;;;;;0.00;0.00;;;;;-146.67;30.42;74144.56;5003075;28;61973;-76
2023/06/06 08:36:53;;;;;;;;;0.00;0.00;;;;;-146.67;30.51;74158.53;5003368;28;61824;-76
2023/06/06 08:39:19;;;;;;;;;0.00;0.00;;;;;-146.67;30.83;74154.53;5003082;28;62008;-78
2023/06/06 08:41:51;;;;;;;;;0.00;0.00;;;;;-146.67;30.69;74158.53;5003531;28;61736;-78
2023/06/06 08:44:22;;;;;;;;;0.00;0.00;;;;;-146.67;31.06;74196.47;4986260;28;62052;-78
2023/06/06 08:46:53;;;;;;;;;0.00;0.00;;;;;-146.67;31.01;74202.44;4986013;28;61881;-77
2023/06/06 08:49:19;;;;;;;;;0.00;0.00;;;;;-146.67;30.77;74194.47;5002147;28;61813;-78
2023/06/06 08:51:49;;;;;;;;;1.00;1.00;;;;;-146.67;30.72;74202.44;5002934;28;61852;-76
2023/06/06 08:54:17;;;;;;;;;0.00;0.00;;;;;-146.67;31.13;74236.38;5002199;28;61979;-78
2023/06/06 08:56:44;;;;;;;;;0.00;0.00;;;;;-146.67;31.59;74278.31;5003124;28;62349;-78
2023/06/06 08:59:13;;;;;;;;;0.00;0.00;;;;;-146.67;31.69;74278.31;5001162;28;62084;-77
2023/06/06 09:01:40;;;;;;;;;0.00;0.00;;;;;-146.67;31.62;74256.34;5003384;28;61825;-84
2023/06/06 09:04:07;;;;;;;;;0.00;0.00;;;;;-146.67;31.07;74242.38;4984986;28;61983;-83
2023/06/06 09:06:43;;;;;;;;;0.00;0.00;;;;;-146.67;31.53;74234.38;4985224;28;61730;-82
2023/06/06 09:09:15;;;;;;;;;0.00;0.00;;;;;-146.67;31.20;74244.38;5001537;28;61990;-82
2023/06/06 09:11:41;;;;;;;;;0.00;0.00;;;;;-146.67;31.59;74258.34;5000015;28;61766;-83
2023/06/06 09:14:07;;;;;;;;;0.00;0.00;;;;;-146.67;31.49;74226.41;5002579;28;62352;-84
2023/06/06 09:16:33;;;;;;;;;0.00;0.00;;;;;-146.67;31.52;74218.41;5002710;28;62090;-84
2023/06/06 09:19:01;;;;;;;;;0.00;0.00;;;;;-146.67;31.56;74226.41;4983299;28;63818;-85
2023/06/06 09:21:33;;;;;;;;;0.00;0.00;;;;;-146.67;31.41;74200.44;5002642;28;61807;-85
2023/06/06 09:23:59;;;;;;;;;0.00;0.00;;;;;-146.67;30.98;74188.47;5002288;28;62062;-86
2023/06/06 09:26:26;;;;;;;;;0.00;0.00;;;;;-146.67;31.15;74164.53;5002500;28;61722;-84
2023/06/06 09:28:51;;;;;;;;;1.00;1.00;;;;;-146.67;30.92;74172.50;5002223;28;62740;-82
2023/06/06 09:31:32;;;;;;;;;0.00;0.00;;;;;-146.67;31.49;74228.41;5002622;28;61918;-85
2023/06/06 09:33:59;;;;;;;;;0.00;0.00;;;;;-146.67;31.66;74236.38;5001562;28;61862;-85
2023/06/06 09:36:28;;;;;;;;;0.00;0.00;;;;;-146.67;31.34;74216.44;5002789;28;62206;-86
2023/06/06 09:39:04;;;;;;;;;0.00;0.00;;;;;-146.67;31.37;74182.50;5002180;28;61947;-85
2023/06/06 09:41:29;;;;;;;;;0.00;0.00;;;;;-146.67;30.84;74150.53;5001577;28;61785;-86
2023/06/06 09:43:55;;;;;;;;;0.00;0.00;;;;;-146.67;30.85;74132.56;5002234;28;61952;-86
2023/06/06 09:46:20;;;;;;;;;0.00;0.00;;;;;-146.67;30.78;74114.63;4983888;28;61908;-85
2023/06/06 09:48:59;;;;;;;;;0.00;0.00;;;;;-146.67;30.43;74100.63;4999112;28;63519;-86
2023/06/06 09:51:29;;;;;;;;;0.00;0.00;;;;;-146.67;30.66;74096.66;4975851;28;61949;-81
2023/06/06 09:53:54;;;;;;;;;0.00;0.00;;;;;-146.67;30.50;74082.69;5002265;28;61871;-84
2023/06/06 09:56:23;;;;;;;;;0.00;0.00;;;;;-146.67;31.03;74070.69;5001535;28;62226;-84
2023/06/06 09:58:59;;;;;;;;;0.00;0.00;;;;;-146.67;31.31;74080.69;5001085;28;61880;-82
2023/06/06 10:01:32;;;;;;;;;0.00;0.00;;;;;-146.67;30.83;74054.72;4975263;28;61786;-85
2023/06/06 10:03:58;;;;;;;;;0.00;0.00;;;;;-146.67;30.74;74026.78;4980948;28;61935;-87
2023/06/06 10:06:26;;;;;;;;;0.00;0.00;;;;;-146.67;30.67;74008.81;5001352;28;61873;-86
2023/06/06 10:08:56;;;;;;;;;0.00;0.00;;;;;-146.67;30.31;73990.84;5001177;28;62930;-83
2023/06/06 10:11:22;;;;;;;;;0.00;0.00;;;;;-146.67;30.40;73980.88;4984247;28;62237;-82
2023/06/06 10:13:51;;;;;;;;;0.00;0.00;;;;;-146.67;30.23;73960.91;5001169;28;62233;-82
2023/06/06 10:16:19;;;;;;;;;0.00;0.00;;;;;-146.67;30.06;73950.94;5002460;28;61772;-82
2023/06/06 10:18:46;;;;;;;;;0.00;0.00;;;;;-146.67;30.23;73952.91;5000167;28;63729;-82
2023/06/06 10:21:15;;;;;;;;;0.00;0.00;;;;;-146.67;29.82;73934.94;5000115;28;62015;-82
2023/06/06 10:23:41;;;;;;;;;0.00;0.00;;;;;-146.67;29.69;73918.97;5001663;28;62146;-82
2023/06/06 10:26:13;;;;;;;;;0.00;0.00;;;;;-146.67;29.65;73899.03;5001869;28;61914;-86
2023/06/06 10:29:06;;;;;;;;;0.00;0.00;;;;;-146.67;29.57;73883.06;5001214;28;61855;-86
2023/06/06 10:31:41;;;;;;;;;0.00;0.00;;;;;-146.67;29.33;73885.06;4971254;28;61785;-83
2023/06/06 10:34:13;;;;;;;;;0.00;0.00;;;;;-146.67;29.53;73871.06;5002336;28;62071;-81
2023/06/06 10:36:40;;;;;;;;;0.00;0.00;;;;;-146.67;29.44;73851.13;5002506;28;61820;-81
2023/06/06 10:39:23;;;;;;;;;0.00;0.00;;;;;-146.67;29.23;73833.16;4983024;28;63563;-82
2023/06/06 10:41:53;;;;;;;;;0.00;0.00;;;;;-146.67;29.13;73809.19;5001246;28;61839;-81
2023/06/06 10:44:21;;;;;;;;;0.00;0.00;;;;;-146.67;29.06;73793.22;5001968;28;61928;-83
2023/06/06 10:46:50;;;;;;;;;0.00;0.00;;;;;-146.67;28.92;73771.28;5000308;28;61781;-83
2023/06/06 10:49:15;;;;;;;;;0.00;0.00;;;;;-146.67;28.53;73763.28;4998419;28;63011;-84
2023/06/06 10:51:41;;;;;;;;;0.33;0.33;;;;;-146.67;28.55;73755.31;5001820;28;62282;-83
2023/06/06 10:54:16;;;;;;;;;1.00;1.00;;;;;-146.67;28.44;73789.25;5001818;28;61725;-84
2023/06/06 10:56:55;;;;;;;;;0.00;0.00;;;;;-146.67;28.85;73773.28;5000703;28;61863;-85
2023/06/06 10:59:31;;;;;;;;;0.00;0.00;;;;;-146.67;28.95;73753.31;4982748;28;63601;-85
2023/06/06 11:01:58;;;;;;;;;0.00;0.00;;;;;-146.67;28.58;73747.31;5001588;28;61814;-86
2023/06/06 11:04:26;;;;;;;;;0.00;0.00;;;;;-146.67;28.62;73717.38;5000776;28;62438;-85
2023/06/06 11:06:53;;;;;;;;;0.00;0.00;;;;;-146.67;28.70;73681.44;5002132;28;61969;-86
2023/06/06 11:09:24;;;;;;;;;0.00;0.00;;;;;-146.67;28.22;73659.50;4999740;28;64931;-84
2023/06/06 11:12:10;;;;;;;;;0.00;0.00;;;;;-146.67;28.10;73631.53;5001482;28;62113;-84
2023/06/06 11:15:07;;;;;;;;;0.00;0.00;;;;;-146.67;28.09;73615.59;5001677;28;62166;-85
2023/06/06 11:17:43;;;;;;;;;0.00;0.00;;;;;-146.67;27.64;73589.63;5003858;28;61766;-86